Flying Dolphin Xvii — SV9699 — position and weather

sailwx.info

Track history (hours):
 
Tides and Currents Weather Stations Pressure Air Temp Water Temp Dewpoint Dewpoint Depression Visibility Wind Speed Wind Dir Waves Ship Positions

Flying Dolphin Xvii

Last reported at 2017-Sep-19 15:30 UTC. Time now 2017-Sep-19 15:31 UTC.
Position N 37°51' E 023°32'.

Length 35 m.

MMSI: 237023600.

Date/timePositionNaut miles runAvg speedWind from/ knotsBaromVisibWave heightAir tempDewpointWater temp
2017-Sep-19 15:30N 37°51' E 023°32'1020.5
2017-Sep-19 15:01N 37°44' E 023°22'3 5.2
2017-Sep-19 14:30N 37°45' E 023°26'1428.2
2017-Sep-19 14:01N 37°56' E 023°37'1 1.4
2017-Sep-19 13:31N 37°55' E 023°36'1326.6
2017-Sep-19 13:01N 37°45' E 023°26'816.4
2017-Sep-19 12:31N 37°51' E 023°32'815.0
2017-Sep-19 12:00N 37°57' E 023°39'1224.9
2017-Sep-19 11:31N 37°48' E 023°28'714.5
2017-Sep-19 11:00N 37°43' E 023°21'4 7.5
2017-Sep-19 10:30N 37°45' E 023°25'1530.4
2017-Sep-19 10:00N 37°56' E 023°38'2 4.9
2017-Sep-19 09:31N 37°54' E 023°36'1322.6
2017-Sep-19 08:57N 37°45' E 023°26'4 9.1
2017-Sep-19 08:31N 37°48' E 023°28'1223.2
2017-Sep-19 08:00N 37°57' E 023°39'0 0.0
2017-Sep-18 15:54N 37°57' E 023°39'821.7
2017-Sep-18 15:31N 37°50' E 023°32'917.1
2017-Sep-18 15:01N 37°44' E 023°24'1 2.9
2017-Sep-18 14:30N 37°45' E 023°26'1327.4
2017-Sep-18 14:00N 37°55' E 023°36'2 0.3
2017-Sep-18 05:43N 37°57' E 023°39'314.9
2017-Sep-18 05:31N 37°55' E 023°36'1324.5
2017-Sep-18 05:00N 37°45' E 023°26'3 5.9
2017-Sep-18 04:30N 37°47' E 023°27'1325.8
2017-Sep-18 04:00N 37°57' E 023°39'0 0.0
2017-Sep-17 16:07N 37°57' E 023°39'0 0.0
2017-Sep-17 16:00N 37°57' E 023°39'1122.6
2017-Sep-17 15:31N 37°49' E 023°29'816.1
2017-Sep-17 15:00N 37°43' E 023°21'4 7.5
2017-Sep-17 14:30N 37°45' E 023°26'1429.0
2017-Sep-17 14:01N 37°56' E 023°36'1 2.9
2017-Sep-17 13:31N 37°55' E 023°35'1325.1
2017-Sep-17 13:00N 37°45' E 023°26'918.2
2017-Sep-17 12:30N 37°52' E 023°33'713.2
2017-Sep-17 12:00N 37°57' E 023°39'1325.8
2017-Sep-17 11:31N 37°48' E 023°27'713.5
2017-Sep-17 11:00N 37°43' E 023°21'4 8.2
2017-Sep-17 10:30N 37°45' E 023°26'1529.5
2017-Sep-17 10:01N 37°56' E 023°37'1 2.5
2017-Sep-17 09:31N 37°55' E 023°36'1326.7
2017-Sep-17 09:00N 37°45' E 023°26'3 6.3
2017-Sep-17 08:30N 37°48' E 023°27'1325.7
2017-Sep-17 08:00N 37°57' E 023°39'815.8
2017-Sep-17 07:30N 37°51' E 023°32'1020.3
2017-Sep-17 07:00N 37°44' E 023°22'3 4.9
2017-Sep-17 06:29N 37°45' E 023°26'1429.3
2017-Sep-17 06:01N 37°56' E 023°36'2 4.4
2017-Sep-17 05:31N 37°57' E 023°39'0 0.0
2017-Sep-16 16:02N 37°57' E 023°39'0 0.0
2017-Sep-16 16:00N 37°57' E 023°39'1121.6
2017-Sep-16 15:31N 37°49' E 023°29'917.4
2017-Sep-16 15:00N 37°43' E 023°21'4 7.8
2017-Sep-16 14:28N 37°45' E 023°26'1327.3
2017-Sep-16 14:01N 37°55' E 023°36'1 2.3
2017-Sep-16 13:30N 37°56' E 023°36'1427.6
2017-Sep-16 13:00N 37°45' E 023°26'713.2
2017-Sep-16 12:30N 37°50' E 023°31'918.6
2017-Sep-16 12:01N 37°57' E 023°39'1427.1
2017-Sep-16 11:31N 37°47' E 023°26'612.2
2017-Sep-16 11:00N 37°43' E 023°21'4 8.1
2017-Sep-16 10:30N 37°45' E 023°26'1529.7
2017-Sep-16 10:01N 37°56' E 023°37'1 0.1
2017-Sep-15 16:03N 37°57' E 023°39'0 1.3
2017-Sep-15 16:00N 37°57' E 023°39'918.7
2017-Sep-15 15:31N 37°50' E 023°31'1019.9
2017-Sep-15 15:00N 37°43' E 023°21'4 7.8
2017-Sep-15 14:30N 37°45' E 023°26'1529.4
2017-Sep-15 14:00N 37°56' E 023°37'0 0.3
2017-Sep-15 13:31N 37°56' E 023°37'1519.2
2017-Sep-15 12:43N 37°44' E 023°25'628.9
2017-Sep-15 12:30N 37°49' E 023°30'1020.4
2017-Sep-15 12:00N 37°57' E 023°39'1121.3
2017-Sep-15 11:30N 37°49' E 023°29'917.6
2017-Sep-15 11:00N 37°43' E 023°21'3 6.9
2017-Sep-15 10:30N 37°45' E 023°25'1530.6
2017-Sep-15 10:00N 37°56' E 023°37'2 3.2
2017-Sep-15 09:31N 37°55' E 023°36'1323.7
2017-Sep-15 08:57N 37°45' E 023°26'817.7
2017-Sep-15 08:31N 37°51' E 023°32'815.5
2017-Sep-15 08:00N 37°57' E 023°39'1021.1
2017-Sep-15 07:31N 37°49' E 023°30'918.2
2017-Sep-15 07:00N 37°43' E 023°21'4 7.8
2017-Sep-15 06:29N 37°46' E 023°25'1531.1
2017-Sep-15 06:00N 37°56' E 023°38'1 0.1
2017-Sep-14 15:56N 37°57' E 023°39'1125.0
2017-Sep-14 15:31N 37°49' E 023°30'917.8
2017-Sep-14 15:00N 37°43' E 023°21'4 7.3
2017-Sep-14 14:30N 37°45' E 023°25'1530.7
2017-Sep-14 14:01N 37°56' E 023°37'1 2.1
2017-Sep-14 13:31N 37°57' E 023°39'0 0.0
2017-Sep-14 13:01N 37°57' E 023°39'4 0.8
2017-Sep-14 08:13N 37°58' E 023°34'0 0.0
2017-Sep-14 08:00N 37°58' E 023°34'4 7.8
2017-Sep-14 07:31N 37°54' E 023°32'3 6.0
2017-Sep-14 07:00N 37°56' E 023°35'2 0.1
2017-Sep-13 14:06N 37°58' E 023°34'1 6.6
2017-Sep-13 13:59N 37°57' E 023°35'612.1
2017-Sep-13 13:30N 37°52' E 023°33'3 4.9
2017-Sep-13 13:00N 37°54' E 023°34'0 0.8
2017-Sep-13 12:30N 37°53' E 023°35'1 1.7
2017-Sep-13 12:00N 37°54' E 023°34'3 0.1
2017-Sep-11 14:05N 37°58' E 023°34'0 0.1
2017-Sep-11 14:00N 37°58' E 023°34'0 0.0
2017-Sep-11 13:30N 37°58' E 023°34'0 0.0
2017-Sep-11 13:00N 37°58' E 023°34'0 0.0
2017-Sep-11 12:30N 37°58' E 023°34'0 0.0
2017-Sep-11 12:00N 37°58' E 023°34'0 0.0
2017-Sep-11 11:30N 37°58' E 023°34'0 0.0
2017-Sep-11 11:00N 37°58' E 023°34'0 0.0
2017-Sep-11 06:31N 37°58' E 023°34'0 0.0
2017-Sep-11 06:30N 37°58' E 023°34'4 7.8
2017-Sep-11 06:00N 37°57' E 023°39'0 0.0
2017-Sep-11 05:30N 37°57' E 023°39'0 0.0
2017-Sep-10 18:38N 37°57' E 023°39'0 0.0
2017-Sep-10 18:30N 37°57' E 023°39'3 6.9
2017-Sep-10 18:01N 37°54' E 023°35'1427.4
2017-Sep-10 17:30N 37°43' E 023°25'1315.3
2017-Sep-10 16:38N 37°30' E 023°27'323.8
2017-Sep-10 16:29N 37°33' E 023°25'1530.9
2017-Sep-10 16:00N 37°48' E 023°28'1224.9
2017-Sep-10 15:30N 37°57' E 023°39'0 0.0
2017-Sep-10 15:01N 37°57' E 023°39'0 0.0
2017-Sep-10 11:55N 37°57' E 023°39'922.7
2017-Sep-10 11:31N 37°50' E 023°30'917.7
2017-Sep-10 11:00N 37°44' E 023°22'2 4.1
2017-Sep-10 10:28N 37°45' E 023°25'1431.9
2017-Sep-10 10:01N 37°56' E 023°36'2 3.2
2017-Sep-10 09:30N 37°56' E 023°38'1427.7
2017-Sep-10 09:01N 37°43' E 023°33'1417.9
2017-Sep-10 08:12N 37°30' E 023°28'8 6.8
2017-Sep-10 06:58N 37°23' E 023°21'914.5
2017-Sep-10 06:20N 37°29' E 023°30'412.5
2017-Sep-10 06:00N 37°31' E 023°25'1632.8
2017-Sep-10 05:30N 37°45' E 023°34'1223.5
2017-Sep-10 05:00N 37°57' E 023°39'0 0.0
2017-Sep-09 20:27N 37°57' E 023°39'919.8
2017-Sep-09 20:01N 37°52' E 023°29'1631.2
2017-Sep-09 19:31N 37°37' E 023°25'815.5
2017-Sep-09 19:00N 37°30' E 023°29'12 5.0
2017-Sep-09 16:40N 37°20' E 023°21'615.3
2017-Sep-09 16:16N 37°22' E 023°28'725.7
2017-Sep-09 16:00N 37°29' E 023°31'  
Track history (hours):
 
Tides and Currents Weather Stations Pressure Air Temp Water Temp Dewpoint Dewpoint Depression Visibility Wind Speed Wind Dir Waves Ship Positions

Flying Dolphin Xvii

Last reported at 2017-Sep-19 15:30 UTC. Time now 2017-Sep-19 15:31 UTC.
Position N 37°51' E 023°32'.

Length 35 m.

MMSI: 237023600.

Date/timePositionNaut miles runAvg speedWind from/ knotsBaromVisibWave heightAir tempDewpointWater temp
2017-Sep-19 15:30N 37°51' E 023°32'1020.5
2017-Sep-19 15:01N 37°44' E 023°22'3 5.2
2017-Sep-19 14:30N 37°45' E 023°26'1428.2
2017-Sep-19 14:01N 37°56' E 023°37'1 1.4
2017-Sep-19 13:31N 37°55' E 023°36'1326.6
2017-Sep-19 13:01N 37°45' E 023°26'816.4
2017-Sep-19 12:31N 37°51' E 023°32'815.0
2017-Sep-19 12:00N 37°57' E 023°39'1224.9
2017-Sep-19 11:31N 37°48' E 023°28'714.5
2017-Sep-19 11:00N 37°43' E 023°21'4 7.5
2017-Sep-19 10:30N 37°45' E 023°25'1530.4
2017-Sep-19 10:00N 37°56' E 023°38'2 4.9
2017-Sep-19 09:31N 37°54' E 023°36'1322.6
2017-Sep-19 08:57N 37°45' E 023°26'4 9.1
2017-Sep-19 08:31N 37°48' E 023°28'1223.2
2017-Sep-19 08:00N 37°57' E 023°39'0 0.0
2017-Sep-18 15:54N 37°57' E 023°39'821.7
2017-Sep-18 15:31N 37°50' E 023°32'917.1
2017-Sep-18 15:01N 37°44' E 023°24'1 2.9
2017-Sep-18 14:30N 37°45' E 023°26'1327.4
2017-Sep-18 14:00N 37°55' E 023°36'2 0.3
2017-Sep-18 05:43N 37°57' E 023°39'314.9
2017-Sep-18 05:31N 37°55' E 023°36'1324.5
2017-Sep-18 05:00N 37°45' E 023°26'3 5.9
2017-Sep-18 04:30N 37°47' E 023°27'1325.8
2017-Sep-18 04:00N 37°57' E 023°39'0 0.0
2017-Sep-17 16:07N 37°57' E 023°39'0 0.0
2017-Sep-17 16:00N 37°57' E 023°39'1122.6
2017-Sep-17 15:31N 37°49' E 023°29'816.1
2017-Sep-17 15:00N 37°43' E 023°21'4 7.5
2017-Sep-17 14:30N 37°45' E 023°26'1429.0
2017-Sep-17 14:01N 37°56' E 023°36'1 2.9
2017-Sep-17 13:31N 37°55' E 023°35'1325.1
2017-Sep-17 13:00N 37°45' E 023°26'918.2
2017-Sep-17 12:30N 37°52' E 023°33'713.2
2017-Sep-17 12:00N 37°57' E 023°39'1325.8
2017-Sep-17 11:31N 37°48' E 023°27'713.5
2017-Sep-17 11:00N 37°43' E 023°21'4 8.2
2017-Sep-17 10:30N 37°45' E 023°26'1529.5
2017-Sep-17 10:01N 37°56' E 023°37'1 2.5
2017-Sep-17 09:31N 37°55' E 023°36'1326.7
2017-Sep-17 09:00N 37°45' E 023°26'3 6.3
2017-Sep-17 08:30N 37°48' E 023°27'1325.7
2017-Sep-17 08:00N 37°57' E 023°39'815.8
2017-Sep-17 07:30N 37°51' E 023°32'1020.3
2017-Sep-17 07:00N 37°44' E 023°22'3 4.9
2017-Sep-17 06:29N 37°45' E 023°26'1429.3
2017-Sep-17 06:01N 37°56' E 023°36'2 4.4
2017-Sep-17 05:31N 37°57' E 023°39'0 0.0
2017-Sep-16 16:02N 37°57' E 023°39'0 0.0
2017-Sep-16 16:00N 37°57' E 023°39'1121.6
2017-Sep-16 15:31N 37°49' E 023°29'917.4
2017-Sep-16 15:00N 37°43' E 023°21'4 7.8
2017-Sep-16 14:28N 37°45' E 023°26'1327.3
2017-Sep-16 14:01N 37°55' E 023°36'1 2.3
2017-Sep-16 13:30N 37°56' E 023°36'1427.6
2017-Sep-16 13:00N 37°45' E 023°26'713.2
2017-Sep-16 12:30N 37°50' E 023°31'918.6
2017-Sep-16 12:01N 37°57' E 023°39'1427.1
2017-Sep-16 11:31N 37°47' E 023°26'612.2
2017-Sep-16 11:00N 37°43' E 023°21'4 8.1
2017-Sep-16 10:30N 37°45' E 023°26'1529.7
2017-Sep-16 10:01N 37°56' E 023°37'1 0.1
2017-Sep-15 16:03N 37°57' E 023°39'0 1.3
2017-Sep-15 16:00N 37°57' E 023°39'918.7
2017-Sep-15 15:31N 37°50' E 023°31'1019.9
2017-Sep-15 15:00N 37°43' E 023°21'4 7.8
2017-Sep-15 14:30N 37°45' E 023°26'1529.4
2017-Sep-15 14:00N 37°56' E 023°37'0 0.3
2017-Sep-15 13:31N 37°56' E 023°37'1519.2
2017-Sep-15 12:43N 37°44' E 023°25'628.9
2017-Sep-15 12:30N 37°49' E 023°30'1020.4
2017-Sep-15 12:00N 37°57' E 023°39'1121.3
2017-Sep-15 11:30N 37°49' E 023°29'917.6
2017-Sep-15 11:00N 37°43' E 023°21'3 6.9
2017-Sep-15 10:30N 37°45' E 023°25'1530.6
2017-Sep-15 10:00N 37°56' E 023°37'2 3.2
2017-Sep-15 09:31N 37°55' E 023°36'1323.7
2017-Sep-15 08:57N 37°45' E 023°26'817.7
2017-Sep-15 08:31N 37°51' E 023°32'815.5
2017-Sep-15 08:00N 37°57' E 023°39'1021.1
2017-Sep-15 07:31N 37°49' E 023°30'918.2
2017-Sep-15 07:00N 37°43' E 023°21'4 7.8
2017-Sep-15 06:29N 37°46' E 023°25'1531.1
2017-Sep-15 06:00N 37°56' E 023°38'1 0.1
2017-Sep-14 15:56N 37°57' E 023°39'1125.0
2017-Sep-14 15:31N 37°49' E 023°30'917.8
2017-Sep-14 15:00N 37°43' E 023°21'4 7.3
2017-Sep-14 14:30N 37°45' E 023°25'1530.7
2017-Sep-14 14:01N 37°56' E 023°37'1 2.1
2017-Sep-14 13:31N 37°57' E 023°39'0 0.0
2017-Sep-14 13:01N 37°57' E 023°39'4 0.8
2017-Sep-14 08:13N 37°58' E 023°34'0 0.0
2017-Sep-14 08:00N 37°58' E 023°34'4 7.8
2017-Sep-14 07:31N 37°54' E 023°32'3 6.0
2017-Sep-14 07:00N 37°56' E 023°35'2 0.1
2017-Sep-13 14:06N 37°58' E 023°34'1 6.6
2017-Sep-13 13:59N 37°57' E 023°35'612.1
2017-Sep-13 13:30N 37°52' E 023°33'3 4.9
2017-Sep-13 13:00N 37°54' E 023°34'0 0.8
2017-Sep-13 12:30N 37°53' E 023°35'1 1.7
2017-Sep-13 12:00N 37°54' E 023°34'3 0.1
2017-Sep-11 14:05N 37°58' E 023°34'0 0.1
2017-Sep-11 14:00N 37°58' E 023°34'0 0.0
2017-Sep-11 13:30N 37°58' E 023°34'0 0.0
2017-Sep-11 13:00N 37°58' E 023°34'0 0.0
2017-Sep-11 12:30N 37°58' E 023°34'0 0.0
2017-Sep-11 12:00N 37°58' E 023°34'0 0.0
2017-Sep-11 11:30N 37°58' E 023°34'0 0.0
2017-Sep-11 11:00N 37°58' E 023°34'0 0.0
2017-Sep-11 06:31N 37°58' E 023°34'0 0.0
2017-Sep-11 06:30N 37°58' E 023°34'4 7.8
2017-Sep-11 06:00N 37°57' E 023°39'0 0.0
2017-Sep-11 05:30N 37°57' E 023°39'0 0.0
2017-Sep-10 18:38N 37°57' E 023°39'0 0.0
2017-Sep-10 18:30N 37°57' E 023°39'3 6.9
2017-Sep-10 18:01N 37°54' E 023°35'1427.4
2017-Sep-10 17:30N 37°43' E 023°25'1315.3
2017-Sep-10 16:38N 37°30' E 023°27'323.8
2017-Sep-10 16:29N 37°33' E 023°25'1530.9
2017-Sep-10 16:00N 37°48' E 023°28'1224.9
2017-Sep-10 15:30N 37°57' E 023°39'0 0.0
2017-Sep-10 15:01N 37°57' E 023°39'0 0.0
2017-Sep-10 11:55N 37°57' E 023°39'922.7
2017-Sep-10 11:31N 37°50' E 023°30'917.7
2017-Sep-10 11:00N 37°44' E 023°22'2 4.1
2017-Sep-10 10:28N 37°45' E 023°25'1431.9
2017-Sep-10 10:01N 37°56' E 023°36'2 3.2
2017-Sep-10 09:30N 37°56' E 023°38'1427.7
2017-Sep-10 09:01N 37°43' E 023°33'1417.9
2017-Sep-10 08:12N 37°30' E 023°28'8 6.8
2017-Sep-10 06:58N 37°23' E 023°21'914.5
2017-Sep-10 06:20N 37°29' E 023°30'412.5
2017-Sep-10 06:00N 37°31' E 023°25'1632.8
2017-Sep-10 05:30N 37°45' E 023°34'1223.5
2017-Sep-10 05:00N 37°57' E 023°39'0 0.0
2017-Sep-09 20:27N 37°57' E 023°39'919.8
2017-Sep-09 20:01N 37°52' E 023°29'1631.2
2017-Sep-09 19:31N 37°37' E 023°25'815.5
2017-Sep-09 19:00N 37°30' E 023°29'12 5.0
2017-Sep-09 16:40N 37°20' E 023°21'615.3
2017-Sep-09 16:16N 37°22' E 023°28'725.7
2017-Sep-09 16:00N 37°29' E 023°31'  

Dump ship's entire track history